sensor_id;sensor_type;location;lat;lon;timestamp;pressure;altitude;pressure_sealevel;temperature;humidity
53340;BME280;46212;50.258;19.062;2023-02-08T00:00:47;100979.84;;;-2.18;83.63
53340;BME280;46212;50.258;19.062;2023-02-08T00:03:12;100976.03;;;-1.61;82.27
53340;BME280;46212;50.258;19.062;2023-02-08T00:05:38;100958.66;;;-1.42;80.08
53340;BME280;46212;50.258;19.062;2023-02-08T00:08:04;100971.41;;;-1.60;80.75
53340;BME280;46212;50.258;19.062;2023-02-08T00:10:29;100953.38;;;-1.82;81.45
53340;BME280;46212;50.258;19.062;2023-02-08T00:12:55;100975.63;;;-2.02;82.40
53340;BME280;46212;50.258;19.062;2023-02-08T00:15:20;100983.28;;;-1.95;82.92
53340;BME280;46212;50.258;19.062;2023-02-08T00:17:46;100979.13;;;-1.93;82.81
53340;BME280;46212;50.258;19.062;2023-02-08T00:20:12;100978.56;;;-1.73;82.70
53340;BME280;46212;50.258;19.062;2023-02-08T00:22:37;100975.72;;;-1.42;81.64
53340;BME280;46212;50.258;19.062;2023-02-08T00:25:05;100975.56;;;-1.37;80.62
53340;BME280;46212;50.258;19.062;2023-02-08T00:27:30;100970.78;;;-1.40;80.38
53340;BME280;46212;50.258;19.062;2023-02-08T00:29:56;100978.09;;;-1.23;79.95
53340;BME280;46212;50.258;19.062;2023-02-08T00:32:21;100976.69;;;-1.38;80.18
53340;BME280;46212;50.258;19.062;2023-02-08T00:34:47;100981.59;;;-1.14;78.91
53340;BME280;46212;50.258;19.062;2023-02-08T00:37:12;100978.91;;;-1.23;78.97
53340;BME280;46212;50.258;19.062;2023-02-08T00:39:38;100970.13;;;-1.20;78.92
53340;BME280;46212;50.258;19.062;2023-02-08T00:42:03;100956.25;;;-1.27;78.95
53340;BME280;46212;50.258;19.062;2023-02-08T00:44:29;100964.72;;;-1.28;79.08
53340;BME280;46212;50.258;19.062;2023-02-08T00:46:54;100961.38;;;-1.42;79.35
53340;BME280;46212;50.258;19.062;2023-02-08T00:49:19;100952.59;;;-1.48;79.99
53340;BME280;46212;50.258;19.062;2023-02-08T00:51:45;100962.81;;;-1.53;80.18
53340;BME280;46212;50.258;19.062;2023-02-08T00:54:13;100963.44;;;-1.56;80.51
53340;BME280;46212;50.258;19.062;2023-02-08T00:56:38;100968.81;;;-1.74;81.22
53340;BME280;46212;50.258;19.062;2023-02-08T00:59:04;100957.81;;;-1.77;81.44
53340;BME280;46212;50.258;19.062;2023-02-08T01:01:29;100966.47;;;-1.49;80.51
53340;BME280;46212;50.258;19.062;2023-02-08T01:03:55;100968.72;;;-1.34;80.15
53340;BME280;46212;50.258;19.062;2023-02-08T01:06:21;100960.88;;;-1.36;79.99
53340;BME280;46212;50.258;19.062;2023-02-08T01:08:47;100966.31;;;-1.36;79.92
53340;BME280;46212;50.258;19.062;2023-02-08T01:11:15;100962.78;;;-1.36;79.68
53340;BME280;46212;50.258;19.062;2023-02-08T01:13:42;100955.63;;;-1.41;79.81
53340;BME280;46212;50.258;19.062;2023-02-08T01:16:17;100950.38;;;-1.37;79.61
53340;BME280;46212;50.258;19.062;2023-02-08T01:18:45;100950.72;;;-1.30;79.30
53340;BME280;46212;50.258;19.062;2023-02-08T01:21:23;100954.53;;;-1.40;79.66
53340;BME280;46212;50.258;19.062;2023-02-08T01:23:49;100949.72;;;-1.69;80.81
53340;BME280;46212;50.258;19.062;2023-02-08T01:26:16;100952.09;;;-1.76;81.15
53340;BME280;46212;50.258;19.062;2023-02-08T01:28:42;100942.03;;;-1.92;82.26
53340;BME280;46212;50.258;19.062;2023-02-08T01:31:10;100958.00;;;-1.74;82.39
53340;BME280;46212;50.258;19.062;2023-02-08T01:33:36;100943.66;;;-1.57;81.48
53340;BME280;46212;50.258;19.062;2023-02-08T01:36:02;100940.16;;;-1.66;81.74
53340;BME280;46212;50.258;19.062;2023-02-08T01:38:28;100935.97;;;-1.81;81.96
53340;BME280;46212;50.258;19.062;2023-02-08T01:40:54;100943.03;;;-1.63;81.59
53340;BME280;46212;50.258;19.062;2023-02-08T01:43:23;100947.81;;;-1.42;80.90
53340;BME280;46212;50.258;19.062;2023-02-08T01:45:49;100934.88;;;-1.71;81.10
53340;BME280;46212;50.258;19.062;2023-02-08T01:48:35;100955.31;;;-1.65;81.97
53340;BME280;46212;50.258;19.062;2023-02-08T01:51:12;100957.66;;;-1.89;82.14
53340;BME280;46212;50.258;19.062;2023-02-08T01:53:40;100958.00;;;-1.74;81.68
53340;BME280;46212;50.258;19.062;2023-02-08T01:56:10;100957.84;;;-1.69;81.97
53340;BME280;46212;50.258;19.062;2023-02-08T01:58:39;100957.22;;;-1.57;81.18
53340;BME280;46212;50.258;19.062;2023-02-08T02:01:06;100935.06;;;-1.68;80.96
53340;BME280;46212;50.258;19.062;2023-02-08T02:03:32;100959.13;;;-1.57;81.04
53340;BME280;46212;50.258;19.062;2023-02-08T02:06:20;100963.91;;;-1.72;81.75
53340;BME280;46212;50.258;19.062;2023-02-08T02:08:52;100954.34;;;-1.52;81.49
53340;BME280;46212;50.258;19.062;2023-02-08T02:11:20;100934.41;;;-1.65;81.33
53340;BME280;46212;50.258;19.062;2023-02-08T02:13:47;100962.94;;;-1.76;82.01
53340;BME280;46212;50.258;19.062;2023-02-08T02:16:12;100949.25;;;-1.53;82.21
53340;BME280;46212;50.258;19.062;2023-02-08T02:18:38;100958.19;;;-1.44;80.87
53340;BME280;46212;50.258;19.062;2023-02-08T02:21:45;100959.75;;;-1.78;81.85
53340;BME280;46212;50.258;19.062;2023-02-08T02:24:34;100951.47;;;-1.64;82.22
53340;BME280;46212;50.258;19.062;2023-02-08T02:27:05;100955.94;;;-1.51;81.21
53340;BME280;46212;50.258;19.062;2023-02-08T02:32:42;100968.56;;;-2.20;84.40
53340;BME280;46212;50.258;19.062;2023-02-08T02:35:27;100965.94;;;-2.34;85.61
53340;BME280;46212;50.258;19.062;2023-02-08T02:43:38;100966.09;;;-1.82;83.87
53340;BME280;46212;50.258;19.062;2023-02-08T02:51:17;100967.28;;;-1.40;82.27
53340;BME280;46212;50.258;19.062;2023-02-08T02:56:17;100980.94;;;-1.71;82.79
53340;BME280;46212;50.258;19.062;2023-02-08T02:58:44;100970.91;;;-1.71;83.17
53340;BME280;46212;50.258;19.062;2023-02-08T03:01:10;100982.22;;;-1.69;83.32
53340;BME280;46212;50.258;19.062;2023-02-08T03:03:36;100978.13;;;-1.40;82.00
53340;BME280;46212;50.258;19.062;2023-02-08T03:06:05;100973.50;;;-1.31;80.67
53340;BME280;46212;50.258;19.062;2023-02-08T03:16:08;100998.06;;;-1.19;80.64
53340;BME280;46212;50.258;19.062;2023-02-08T03:19:05;101002.66;;;-1.45;81.47
53340;BME280;46212;50.258;19.062;2023-02-08T03:26:52;101014.75;;;-1.51;82.48
53340;BME280;46212;50.258;19.062;2023-02-08T03:32:16;100995.50;;;-1.33;82.06
53340;BME280;46212;50.258;19.062;2023-02-08T03:35:03;101003.78;;;-1.38;81.70
53340;BME280;46212;50.258;19.062;2023-02-08T03:37:40;100985.25;;;-1.70;82.44
53340;BME280;46212;50.258;19.062;2023-02-08T03:40:13;100995.91;;;-1.82;83.61
53340;BME280;46212;50.258;19.062;2023-02-08T03:42:40;100989.22;;;-1.85;83.85
53340;BME280;46212;50.258;19.062;2023-02-08T03:45:16;101001.03;;;-1.55;83.57
53340;BME280;46212;50.258;19.062;2023-02-08T03:47:45;101017.81;;;-1.53;82.86
53340;BME280;46212;50.258;19.062;2023-02-08T03:50:13;101006.81;;;-1.31;82.48
53340;BME280;46212;50.258;19.062;2023-02-08T03:52:44;101001.06;;;-1.29;81.69
53340;BME280;46212;50.258;19.062;2023-02-08T03:55:13;101009.38;;;-1.17;81.16
53340;BME280;46212;50.258;19.062;2023-02-08T04:00:19;101004.25;;;-1.10;80.45
53340;BME280;46212;50.258;19.062;2023-02-08T04:05:18;100983.53;;;-1.40;80.85
53340;BME280;46212;50.258;19.062;2023-02-08T04:07:44;101003.63;;;-1.33;81.16
53340;BME280;46212;50.258;19.062;2023-02-08T04:10:09;101000.91;;;-1.33;81.30
53340;BME280;46212;50.258;19.062;2023-02-08T04:12:35;100994.53;;;-1.37;81.51
53340;BME280;46212;50.258;19.062;2023-02-08T04:15:00;101002.50;;;-1.40;82.13
53340;BME280;46212;50.258;19.062;2023-02-08T04:17:26;100991.19;;;-1.25;81.80
53340;BME280;46212;50.258;19.062;2023-02-08T04:19:51;101013.69;;;-0.99;81.49
53340;BME280;46212;50.258;19.062;2023-02-08T04:22:17;100983.34;;;-1.01;80.49
53340;BME280;46212;50.258;19.062;2023-02-08T04:24:42;101013.03;;;-1.04;80.78
53340;BME280;46212;50.258;19.062;2023-02-08T04:27:07;101007.31;;;-1.12;81.41
53340;BME280;46212;50.258;19.062;2023-02-08T04:29:33;101003.63;;;-1.07;81.45
53340;BME280;46212;50.258;19.062;2023-02-08T04:31:58;100987.34;;;-1.33;81.52
53340;BME280;46212;50.258;19.062;2023-02-08T04:34:24;100992.78;;;-1.16;81.66
53340;BME280;46212;50.258;19.062;2023-02-08T04:36:49;101000.09;;;-1.08;82.02
53340;BME280;46212;50.258;19.062;2023-02-08T04:39:15;101012.38;;;-1.44;82.88
53340;BME280;46212;50.258;19.062;2023-02-08T04:41:40;101011.63;;;-1.28;83.37
53340;BME280;46212;50.258;19.062;2023-02-08T04:44:06;101018.47;;;-1.13;83.09
53340;BME280;46212;50.258;19.062;2023-02-08T04:46:31;101010.34;;;-1.30;83.77
53340;BME280;46212;50.258;19.062;2023-02-08T04:48:56;101017.97;;;-1.41;84.21
53340;BME280;46212;50.258;19.062;2023-02-08T04:51:22;100995.63;;;-1.64;84.49
53340;BME280;46212;50.258;19.062;2023-02-08T04:53:48;101020.69;;;-1.49;84.81
53340;BME280;46212;50.258;19.062;2023-02-08T04:56:13;101013.13;;;-1.70;85.16
53340;BME280;46212;50.258;19.062;2023-02-08T04:58:39;101019.19;;;-1.73;86.04
53340;BME280;46212;50.258;19.062;2023-02-08T05:01:06;101011.69;;;-1.67;86.07
53340;BME280;46212;50.258;19.062;2023-02-08T05:03:31;101014.78;;;-1.43;85.53
53340;BME280;46212;50.258;19.062;2023-02-08T05:05:58;101026.56;;;-1.47;85.30
53340;BME280;46212;50.258;19.062;2023-02-08T05:08:24;100997.69;;;-1.69;85.55
53340;BME280;46212;50.258;19.062;2023-02-08T05:10:49;101020.34;;;-1.48;85.41
53340;BME280;46212;50.258;19.062;2023-02-08T05:13:14;101035.03;;;-1.32;85.07
53340;BME280;46212;50.258;19.062;2023-02-08T05:15:40;101022.44;;;-1.36;84.60
53340;BME280;46212;50.258;19.062;2023-02-08T05:18:05;101017.66;;;-1.31;84.79
53340;BME280;46212;50.258;19.062;2023-02-08T05:20:31;101038.09;;;-1.25;84.34
53340;BME280;46212;50.258;19.062;2023-02-08T05:22:58;101026.75;;;-1.01;83.07
53340;BME280;46212;50.258;19.062;2023-02-08T05:25:23;101015.91;;;-1.18;83.27
53340;BME280;46212;50.258;19.062;2023-02-08T05:27:49;101042.06;;;-1.22;83.86
53340;BME280;46212;50.258;19.062;2023-02-08T05:30:14;101043.97;;;-1.23;84.05
53340;BME280;46212;50.258;19.062;2023-02-08T05:32:40;101039.53;;;-1.19;84.04
53340;BME280;46212;50.258;19.062;2023-02-08T05:35:05;101017.97;;;-1.24;84.24
53340;BME280;46212;50.258;19.062;2023-02-08T05:37:31;101033.47;;;-1.16;84.06
53340;BME280;46212;50.258;19.062;2023-02-08T05:39:56;101024.53;;;-1.16;84.51
53340;BME280;46212;50.258;19.062;2023-02-08T05:42:22;101026.75;;;-0.84;83.82
53340;BME280;46212;50.258;19.062;2023-02-08T05:44:47;101038.56;;;-0.80;82.51
53340;BME280;46212;50.258;19.062;2023-02-08T05:47:12;101032.78;;;-0.61;82.08
53340;BME280;46212;50.258;19.062;2023-02-08T05:49:38;101037.44;;;-0.79;81.50
53340;BME280;46212;50.258;19.062;2023-02-08T05:52:03;101042.06;;;-0.88;82.97
53340;BME280;46212;50.258;19.062;2023-02-08T05:54:29;101032.47;;;-0.85;82.42
53340;BME280;46212;50.258;19.062;2023-02-08T05:56:54;101030.91;;;-0.86;82.57
53340;BME280;46212;50.258;19.062;2023-02-08T05:59:20;101039.50;;;-0.59;82.17
53340;BME280;46212;50.258;19.062;2023-02-08T06:01:45;101050.97;;;-0.53;81.86
53340;BME280;46212;50.258;19.062;2023-02-08T06:04:10;101055.78;;;-0.59;81.67
53340;BME280;46212;50.258;19.062;2023-02-08T06:06:36;101056.25;;;-0.82;82.17
53340;BME280;46212;50.258;19.062;2023-02-08T06:09:02;101043.19;;;-0.89;82.87
53340;BME280;46212;50.258;19.062;2023-02-08T06:11:27;101061.06;;;-0.88;83.31
53340;BME280;46212;50.258;19.062;2023-02-08T06:13:53;101059.59;;;-0.60;82.51
53340;BME280;46212;50.258;19.062;2023-02-08T06:16:18;101042.84;;;-0.62;81.81
53340;BME280;46212;50.258;19.062;2023-02-08T06:18:44;101060.41;;;-0.85;82.80
53340;BME280;46212;50.258;19.062;2023-02-08T06:21:09;101053.22;;;-0.55;82.23
53340;BME280;46212;50.258;19.062;2023-02-08T06:23:36;101060.69;;;-0.43;81.45
53340;BME280;46212;50.258;19.062;2023-02-08T06:26:02;101060.25;;;-0.54;81.41
53340;BME280;46212;50.258;19.062;2023-02-08T06:28:27;101071.44;;;-0.81;82.83
53340;BME280;46212;50.258;19.062;2023-02-08T06:30:53;101062.97;;;-0.71;83.16
53340;BME280;46212;50.258;19.062;2023-02-08T06:33:18;101069.31;;;-0.50;81.63
53340;BME280;46212;50.258;19.062;2023-02-08T06:35:50;101060.88;;;-0.48;81.89
53340;BME280;46212;50.258;19.062;2023-02-08T06:38:16;101069.53;;;-0.64;82.07
53340;BME280;46212;50.258;19.062;2023-02-08T06:40:42;101071.88;;;-0.45;82.10
53340;BME280;46212;50.258;19.062;2023-02-08T06:43:07;101077.16;;;-0.48;81.69
53340;BME280;46212;50.258;19.062;2023-02-08T06:45:33;101083.66;;;-0.41;81.85
53340;BME280;46212;50.258;19.062;2023-02-08T06:47:58;101066.13;;;-0.43;81.65
53340;BME280;46212;50.258;19.062;2023-02-08T06:50:24;101076.31;;;-0.40;81.21
53340;BME280;46212;50.258;19.062;2023-02-08T06:52:49;101072.38;;;-0.51;81.62
53340;BME280;46212;50.258;19.062;2023-02-08T06:55:14;101086.22;;;-0.36;81.69
53340;BME280;46212;50.258;19.062;2023-02-08T06:57:40;101090.56;;;-0.52;82.09
53340;BME280;46212;50.258;19.062;2023-02-08T07:00:06;101097.44;;;-0.63;82.49
53340;BME280;46212;50.258;19.062;2023-02-08T07:02:31;101105.59;;;-0.80;83.15
53340;BME280;46212;50.258;19.062;2023-02-08T07:04:57;101108.00;;;-0.70;83.69
53340;BME280;46212;50.258;19.062;2023-02-08T07:07:22;101104.94;;;-0.94;83.84
53340;BME280;46212;50.258;19.062;2023-02-08T07:09:48;101103.50;;;-0.75;83.75
53340;BME280;46212;50.258;19.062;2023-02-08T07:12:13;101075.59;;;-0.67;83.48
53340;BME280;46212;50.258;19.062;2023-02-08T07:14:41;101097.59;;;-0.60;82.90
53340;BME280;46212;50.258;19.062;2023-02-08T07:17:07;101109.88;;;-0.45;83.07
53340;BME280;46212;50.258;19.062;2023-02-08T07:19:33;101120.91;;;-0.67;83.32
53340;BME280;46212;50.258;19.062;2023-02-08T07:21:58;101111.28;;;-0.30;82.15
53340;BME280;46212;50.258;19.062;2023-02-08T07:24:29;101119.44;;;-0.30;82.18
53340;BME280;46212;50.258;19.062;2023-02-08T07:26:54;101125.34;;;-0.20;81.74
53340;BME280;46212;50.258;19.062;2023-02-08T07:29:20;101113.38;;;-0.53;82.36
53340;BME280;46212;50.258;19.062;2023-02-08T07:31:45;101096.31;;;-0.54;82.00
53340;BME280;46212;50.258;19.062;2023-02-08T07:34:13;101123.59;;;-0.84;83.09
53340;BME280;46212;50.258;19.062;2023-02-08T07:36:45;101112.28;;;-0.52;83.11
53340;BME280;46212;50.258;19.062;2023-02-08T07:39:11;101124.38;;;-0.41;82.02
53340;BME280;46212;50.258;19.062;2023-02-08T07:41:36;101111.16;;;-0.60;82.25
53340;BME280;46212;50.258;19.062;2023-02-08T07:44:02;101107.97;;;-0.44;81.96
53340;BME280;46212;50.258;19.062;2023-02-08T07:46:27;101120.53;;;-0.31;81.56
53340;BME280;46212;50.258;19.062;2023-02-08T07:48:52;101126.81;;;-0.48;81.98
53340;BME280;46212;50.258;19.062;2023-02-08T07:51:18;101118.03;;;-0.62;82.30
53340;BME280;46212;50.258;19.062;2023-02-08T07:53:43;101110.22;;;-0.55;82.41
53340;BME280;46212;50.258;19.062;2023-02-08T07:56:09;101123.91;;;-0.34;81.30
53340;BME280;46212;50.258;19.062;2023-02-08T07:58:35;101117.50;;;-0.21;80.49
53340;BME280;46212;50.258;19.062;2023-02-08T08:01:00;101119.72;;;-0.15;80.66
53340;BME280;46212;50.258;19.062;2023-02-08T08:03:26;101122.28;;;-0.18;80.15
53340;BME280;46212;50.258;19.062;2023-02-08T08:05:52;101119.34;;;0.04;78.63
53340;BME280;46212;50.258;19.062;2023-02-08T08:08:18;101140.19;;;-0.17;79.43
53340;BME280;46212;50.258;19.062;2023-02-08T08:10:43;101123.22;;;-0.06;78.01
53340;BME280;46212;50.258;19.062;2023-02-08T08:13:10;101141.34;;;0.28;77.43
53340;BME280;46212;50.258;19.062;2023-02-08T08:15:36;101141.09;;;0.13;77.08
53340;BME280;46212;50.258;19.062;2023-02-08T08:18:01;101128.53;;;-0.18;77.12
53340;BME280;46212;50.258;19.062;2023-02-08T08:20:27;101144.34;;;-0.20;78.24
53340;BME280;46212;50.258;19.062;2023-02-08T08:22:52;101159.81;;;-0.12;77.73
53340;BME280;46212;50.258;19.062;2023-02-08T08:25:18;101142.06;;;-0.01;77.21
53340;BME280;46212;50.258;19.062;2023-02-08T08:27:43;101146.28;;;0.26;76.60
53340;BME280;46212;50.258;19.062;2023-02-08T08:30:11;101156.94;;;0.48;74.94
53340;BME280;46212;50.258;19.062;2023-02-08T08:32:37;101150.75;;;0.69;73.79
53340;BME280;46212;50.258;19.062;2023-02-08T08:35:04;101167.88;;;0.23;73.25
53340;BME280;46212;50.258;19.062;2023-02-08T08:37:30;101163.59;;;0.60;73.13
53340;BME280;46212;50.258;19.062;2023-02-08T08:39:55;101170.09;;;0.76;71.79
53340;BME280;46212;50.258;19.062;2023-02-08T08:42:21;101150.94;;;0.64;71.63
53340;BME280;46212;50.258;19.062;2023-02-08T08:44:46;101172.66;;;0.72;71.89
53340;BME280;46212;50.258;19.062;2023-02-08T08:47:12;101157.59;;;1.04;70.60
53340;BME280;46212;50.258;19.062;2023-02-08T08:49:38;101162.91;;;1.00;70.29
53340;BME280;46212;50.258;19.062;2023-02-08T08:52:03;101173.28;;;1.28;69.13
53340;BME280;46212;50.258;19.062;2023-02-08T08:54:32;101158.69;;;1.53;67.76
53340;BME280;46212;50.258;19.062;2023-02-08T08:56:57;101161.34;;;1.41;67.45
53340;BME280;46212;50.258;19.062;2023-02-08T08:59:23;101155.56;;;1.42;66.97
53340;BME280;46212;50.258;19.062;2023-02-08T09:01:49;101157.22;;;1.55;66.68
53340;BME280;46212;50.258;19.062;2023-02-08T09:04:14;101171.94;;;1.75;66.31
53340;BME280;46212;50.258;19.062;2023-02-08T09:06:40;101158.13;;;1.59;66.44
53340;BME280;46212;50.258;19.062;2023-02-08T09:09:05;101168.03;;;1.97;64.98
53340;BME280;46212;50.258;19.062;2023-02-08T09:11:31;101153.56;;;2.05;64.29
53340;BME280;46212;50.258;19.062;2023-02-08T09:14:03;101171.59;;;2.09;64.57
53340;BME280;46212;50.258;19.062;2023-02-08T09:16:29;101168.88;;;2.09;64.53
53340;BME280;46212;50.258;19.062;2023-02-08T09:18:55;101169.69;;;2.10;64.00
53340;BME280;46212;50.258;19.062;2023-02-08T09:21:24;101174.03;;;2.23;63.71
53340;BME280;46212;50.258;19.062;2023-02-08T09:23:49;101176.19;;;2.18;63.63
53340;BME280;46212;50.258;19.062;2023-02-08T09:26:17;101184.34;;;2.05;64.26
53340;BME280;46212;50.258;19.062;2023-02-08T09:28:43;101181.00;;;2.00;64.52
53340;BME280;46212;50.258;19.062;2023-02-08T09:31:12;101177.47;;;2.32;63.05
53340;BME280;46212;50.258;19.062;2023-02-08T09:33:38;101175.47;;;2.65;62.10
53340;BME280;46212;50.258;19.062;2023-02-08T09:36:04;101184.09;;;2.92;62.29
53340;BME280;46212;50.258;19.062;2023-02-08T09:38:30;101191.94;;;3.30;60.95
53340;BME280;46212;50.258;19.062;2023-02-08T09:46:59;101185.25;;;3.03;61.38
53340;BME280;46212;50.258;19.062;2023-02-08T09:49:31;101188.00;;;2.91;62.01
53340;BME280;46212;50.258;19.062;2023-02-08T09:52:02;101178.44;;;2.73;61.56
53340;BME280;46212;50.258;19.062;2023-02-08T09:54:35;101161.72;;;2.74;61.80
53340;BME280;46212;50.258;19.062;2023-02-08T09:57:04;101171.94;;;2.77;61.83
53340;BME280;46212;50.258;19.062;2023-02-08T09:59:34;101167.72;;;2.92;61.65
53340;BME280;46212;50.258;19.062;2023-02-08T10:07:15;101179.50;;;3.44;58.98
53340;BME280;46212;50.258;19.062;2023-02-08T10:09:40;101175.53;;;3.42;57.98
53340;BME280;46212;50.258;19.062;2023-02-08T10:15:26;101170.03;;;3.54;59.24
53340;BME280;46212;50.258;19.062;2023-02-08T10:26:13;101165.44;;;3.18;60.66
53340;BME280;46212;50.258;19.062;2023-02-08T10:33:56;101177.94;;;3.99;57.58
53340;BME280;46212;50.258;19.062;2023-02-08T10:36:26;101171.16;;;3.53;59.14
53340;BME280;46212;50.258;19.062;2023-02-08T10:38:54;101155.19;;;4.10;57.53
53340;BME280;46212;50.258;19.062;2023-02-08T10:41:26;101167.84;;;4.15;57.18
53340;BME280;46212;50.258;19.062;2023-02-08T10:44:04;101166.97;;;4.26;55.70
53340;BME280;46212;50.258;19.062;2023-02-08T10:46:54;101168.16;;;4.13;55.17
53340;BME280;46212;50.258;19.062;2023-02-08T10:49:49;101167.28;;;4.09;55.65
53340;BME280;46212;50.258;19.062;2023-02-08T10:52:17;101185.63;;;3.81;56.28
53340;BME280;46212;50.258;19.062;2023-02-08T10:54:43;101158.41;;;3.17;57.39
53340;BME280;46212;50.258;19.062;2023-02-08T10:57:22;101172.84;;;3.05;57.08
53340;BME280;46212;50.258;19.062;2023-02-08T10:59:59;101174.88;;;3.33;56.40
53340;BME280;46212;50.258;19.062;2023-02-08T11:02:30;101176.13;;;3.11;57.00
53340;BME280;46212;50.258;19.062;2023-02-08T11:07:26;101181.22;;;3.37;57.15
53340;BME280;46212;50.258;19.062;2023-02-08T11:09:52;101188.59;;;3.48;57.20
53340;BME280;46212;50.258;19.062;2023-02-08T11:12:21;101171.09;;;3.65;57.68
53340;BME280;46212;50.258;19.062;2023-02-08T11:14:50;101178.78;;;3.87;56.84
53340;BME280;46212;50.258;19.062;2023-02-08T11:17:34;101175.31;;;3.35;56.78
53340;BME280;46212;50.258;19.062;2023-02-08T11:19:59;101170.09;;;3.30;57.85
53340;BME280;46212;50.258;19.062;2023-02-08T11:22:26;101164.78;;;3.61;57.07
53340;BME280;46212;50.258;19.062;2023-02-08T11:25:00;101176.59;;;3.93;56.03
53340;BME280;46212;50.258;19.062;2023-02-08T11:27:36;101171.91;;;3.93;55.37
53340;BME280;46212;50.258;19.062;2023-02-08T11:32:40;101164.72;;;3.33;56.33
53340;BME280;46212;50.258;19.062;2023-02-08T11:35:22;101151.84;;;2.82;58.43
53340;BME280;46212;50.258;19.062;2023-02-08T11:37:50;101162.19;;;3.40;57.41
53340;BME280;46212;50.258;19.062;2023-02-08T11:40:37;101158.41;;;3.17;57.81
53340;BME280;46212;50.258;19.062;2023-02-08T11:43:20;101159.59;;;3.32;57.07
53340;BME280;46212;50.258;19.062;2023-02-08T11:45:46;101143.25;;;3.19;57.36
53340;BME280;46212;50.258;19.062;2023-02-08T11:48:38;101157.84;;;3.51;55.42
53340;BME280;46212;50.258;19.062;2023-02-08T11:51:05;101161.91;;;3.30;56.23
53340;BME280;46212;50.258;19.062;2023-02-08T11:53:39;101164.06;;;3.12;57.12
53340;BME280;46212;50.258;19.062;2023-02-08T11:56:15;101158.44;;;2.68;58.76
53340;BME280;46212;50.258;19.062;2023-02-08T11:58:42;101156.94;;;3.07;58.18
53340;BME280;46212;50.258;19.062;2023-02-08T12:01:20;101151.34;;;3.56;56.84
53340;BME280;46212;50.258;19.062;2023-02-08T12:03:51;101144.69;;;3.69;57.12
53340;BME280;46212;50.258;19.062;2023-02-08T12:11:47;101136.91;;;5.27;51.55
53340;BME280;46212;50.258;19.062;2023-02-08T12:14:30;101142.25;;;5.20;50.47
53340;BME280;46212;50.258;19.062;2023-02-08T12:20:13;101135.50;;;5.91;48.25
53340;BME280;46212;50.258;19.062;2023-02-08T12:25:35;101122.00;;;6.47;46.24
53340;BME280;46212;50.258;19.062;2023-02-08T12:30:38;101120.75;;;6.90;47.55
53340;BME280;46212;50.258;19.062;2023-02-08T12:33:57;101119.41;;;6.80;45.90
53340;BME280;46212;50.258;19.062;2023-02-08T12:39:30;101108.41;;;6.54;45.65
53340;BME280;46212;50.258;19.062;2023-02-08T12:42:27;101095.66;;;6.65;45.15
53340;BME280;46212;50.258;19.062;2023-02-08T12:47:43;101098.84;;;6.45;45.53
53340;BME280;46212;50.258;19.062;2023-02-08T12:50:26;101085.41;;;6.62;45.75
53340;BME280;46212;50.258;19.062;2023-02-08T12:53:24;101096.91;;;6.71;44.94
53340;BME280;46212;50.258;19.062;2023-02-08T12:55:46;101094.19;;;6.71;44.72
53340;BME280;46212;50.258;19.062;2023-02-08T13:01:07;101087.19;;;6.51;44.64
53340;BME280;46212;50.258;19.062;2023-02-08T13:03:56;101090.47;;;6.86;43.63
53340;BME280;46212;50.258;19.062;2023-02-08T13:06:30;101087.50;;;6.99;43.82
53340;BME280;46212;50.258;19.062;2023-02-08T13:09:02;101091.59;;;7.12;43.90
53340;BME280;46212;50.258;19.062;2023-02-08T13:11:39;101086.84;;;7.09;43.71
53340;BME280;46212;50.258;19.062;2023-02-08T13:17:18;101080.97;;;7.07;44.08
53340;BME280;46212;50.258;19.062;2023-02-08T13:19:50;101092.53;;;6.93;42.55
53340;BME280;46212;50.258;19.062;2023-02-08T13:22:17;101069.19;;;6.80;43.78
53340;BME280;46212;50.258;19.062;2023-02-08T13:24:44;101083.53;;;7.22;43.04
53340;BME280;46212;50.258;19.062;2023-02-08T13:27:21;101078.44;;;7.24;42.37
53340;BME280;46212;50.258;19.062;2023-02-08T13:29:49;101065.84;;;7.23;42.38
53340;BME280;46212;50.258;19.062;2023-02-08T13:32:25;101087.81;;;7.23;41.47
53340;BME280;46212;50.258;19.062;2023-02-08T13:35:05;101084.03;;;7.65;41.55
53340;BME280;46212;50.258;19.062;2023-02-08T13:37:37;101061.13;;;7.54;41.26
53340;BME280;46212;50.258;19.062;2023-02-08T13:40:16;101074.03;;;7.86;40.63
53340;BME280;46212;50.258;19.062;2023-02-08T13:42:50;101063.78;;;8.24;40.00
53340;BME280;46212;50.258;19.062;2023-02-08T13:45:40;101061.34;;;8.63;38.46
53340;BME280;46212;50.258;19.062;2023-02-08T13:48:09;101068.09;;;8.72;38.62
53340;BME280;46212;50.258;19.062;2023-02-08T13:50:48;101069.56;;;9.21;37.59
53340;BME280;46212;50.258;19.062;2023-02-08T13:53:15;101059.56;;;9.99;35.66
53340;BME280;46212;50.258;19.062;2023-02-08T13:55:58;101069.94;;;11.73;33.08
53340;BME280;46212;50.258;19.062;2023-02-08T13:58:25;101068.25;;;13.88;30.87
53340;BME280;46212;50.258;19.062;2023-02-08T14:03:28;101056.88;;;16.77;25.86
53340;BME280;46212;50.258;19.062;2023-02-08T14:08:43;101056.31;;;18.19;24.14
53340;BME280;46212;50.258;19.062;2023-02-08T14:11:17;101043.53;;;18.18;23.38
53340;BME280;46212;50.258;19.062;2023-02-08T14:13:51;101061.34;;;18.84;22.89
53340;BME280;46212;50.258;19.062;2023-02-08T14:16:28;101046.75;;;18.67;23.05
53340;BME280;46212;50.258;19.062;2023-02-08T14:18:59;101066.59;;;17.43;23.98
53340;BME280;46212;50.258;19.062;2023-02-08T14:27:17;101062.16;;;18.72;22.62
53340;BME280;46212;50.258;19.062;2023-02-08T14:32:47;101065.63;;;18.76;21.88
53340;BME280;46212;50.258;19.062;2023-02-08T14:35:17;101063.78;;;17.72;23.25
53340;BME280;46212;50.258;19.062;2023-02-08T14:37:46;101057.97;;;17.25;23.71
53340;BME280;46212;50.258;19.062;2023-02-08T14:45:48;101041.38;;;14.31;26.86
53340;BME280;46212;50.258;19.062;2023-02-08T14:48:44;101054.06;;;13.21;28.61